createdAt,value
2018-11-26T00:00:35.411Z,4.80
2018-11-26T00:03:08.496Z,4.70
2018-11-26T00:05:37.867Z,4.70
2018-11-26T00:08:07.757Z,4.80
2018-11-26T00:10:47.437Z,4.90
2018-11-26T00:13:15.986Z,4.60
2018-11-26T00:15:44.491Z,4.50
2018-11-26T00:18:13.010Z,4.80
2018-11-26T00:20:41.543Z,4.70
2018-11-26T00:23:10.302Z,5.10
2018-11-26T00:25:38.844Z,4.90
2018-11-26T00:28:07.398Z,4.70
2018-11-26T00:30:35.924Z,4.80
2018-11-26T00:33:04.415Z,4.90
2018-11-26T00:35:32.933Z,4.90
2018-11-26T00:38:01.423Z,4.80
2018-11-26T00:40:29.921Z,4.80
2018-11-26T00:47:54.837Z,4.70
2018-11-26T00:50:23.333Z,4.80
2018-11-26T00:52:51.787Z,4.70
2018-11-26T00:55:20.319Z,4.90
2018-11-26T00:57:48.829Z,4.80
2018-11-26T01:00:18.359Z,4.70
2018-11-26T01:02:46.893Z,4.50
2018-11-26T01:05:26.507Z,4.60
2018-11-26T01:07:55.007Z,4.80
2018-11-26T01:10:23.633Z,4.70
2018-11-26T01:12:52.313Z,4.60
2018-11-26T01:15:20.961Z,4.70
2018-11-26T01:17:49.483Z,4.70
2018-11-26T01:20:18.019Z,4.90
2018-11-26T01:22:46.563Z,4.70
2018-11-26T01:25:15.082Z,4.80
2018-11-26T01:27:43.595Z,4.80
2018-11-26T01:30:12.169Z,4.80
2018-11-26T01:32:40.716Z,4.90
2018-11-26T01:35:09.283Z,4.80
2018-11-26T01:37:37.829Z,4.80
2018-11-26T01:40:11.381Z,4.80
2018-11-26T01:42:40.574Z,4.80
2018-11-26T01:45:09.568Z,4.90
2018-11-26T01:47:38.241Z,4.90
2018-11-26T01:50:07.368Z,4.70
2018-11-26T01:52:35.893Z,4.70
2018-11-26T01:55:04.553Z,4.70
2018-11-26T01:57:33.038Z,4.70
2018-11-26T02:00:01.554Z,4.90
2018-11-26T02:02:30.066Z,4.70
2018-11-26T02:04:58.621Z,4.70
2018-11-26T02:07:27.181Z,4.80
2018-11-26T02:09:55.704Z,4.80
2018-11-26T02:12:24.196Z,4.70
2018-11-26T02:14:52.723Z,4.70
2018-11-26T02:17:21.239Z,4.80
2018-11-26T02:19:49.756Z,4.80
2018-11-26T02:22:18.313Z,4.70
2018-11-26T02:24:46.827Z,4.70
2018-11-26T02:27:15.365Z,4.70
2018-11-26T02:29:43.900Z,4.70
2018-11-26T02:32:12.371Z,4.60
2018-11-26T02:34:40.914Z,4.60
2018-11-26T02:37:09.397Z,4.60
2018-11-26T02:39:37.944Z,4.60
2018-11-26T02:42:06.450Z,4.60
2018-11-26T02:44:34.965Z,4.50
2018-11-26T02:47:03.450Z,4.50
2018-11-26T02:49:31.963Z,4.60
2018-11-26T02:52:00.434Z,4.50
2018-11-26T02:54:28.939Z,4.70
2018-11-26T02:56:57.454Z,4.50
2018-11-26T02:59:25.940Z,4.40
2018-11-26T03:01:54.762Z,4.50
2018-11-26T03:04:23.270Z,4.50
2018-11-26T03:06:51.782Z,4.40
2018-11-26T03:09:20.285Z,4.40
2018-11-26T03:11:48.784Z,4.50
2018-11-26T03:14:17.360Z,4.40
2018-11-26T03:16:45.872Z,4.40
2018-11-26T03:19:14.396Z,4.40
2018-11-26T03:21:42.906Z,4.50
2018-11-26T03:24:11.409Z,4.60
2018-11-26T03:26:39.923Z,4.60
2018-11-26T03:29:08.424Z,4.60
2018-11-26T03:31:36.967Z,4.60
2018-11-26T03:34:05.592Z,4.40
2018-11-26T03:36:34.151Z,4.10
2018-11-26T03:39:02.767Z,4.50
2018-11-26T03:41:31.328Z,4.50
2018-11-26T03:43:59.906Z,4.50
2018-11-26T03:46:28.387Z,4.40
2018-11-26T03:48:57.017Z,4.30
2018-11-26T03:51:25.549Z,4.40
2018-11-26T03:53:54.106Z,4.40
2018-11-26T03:56:22.665Z,4.50
2018-11-26T03:58:51.168Z,4.50
2018-11-26T04:01:19.686Z,4.20
2018-11-26T04:03:48.215Z,4.50
2018-11-26T04:06:16.729Z,4.50
2018-11-26T04:08:45.257Z,4.60
2018-11-26T04:11:13.780Z,4.60
2018-11-26T04:13:42.351Z,4.60
2018-11-26T04:16:10.847Z,4.60
2018-11-26T04:18:39.379Z,4.50
2018-11-26T04:21:07.901Z,4.50
2018-11-26T04:23:36.423Z,4.50
2018-11-26T04:26:05.007Z,4.50
2018-11-26T04:28:33.523Z,4.50
2018-11-26T04:31:02.103Z,4.60
2018-11-26T04:33:30.590Z,4.60
2018-11-26T04:35:59.117Z,4.20
2018-11-26T04:38:27.660Z,4.50
2018-11-26T04:40:56.160Z,4.50
2018-11-26T04:43:24.698Z,4.50
2018-11-26T04:45:53.197Z,4.50
2018-11-26T04:48:21.731Z,4.50
2018-11-26T04:50:50.247Z,4.60
2018-11-26T04:53:18.755Z,4.60
2018-11-26T04:55:47.223Z,4.60
2018-11-26T04:58:15.764Z,4.50
2018-11-26T05:00:44.291Z,4.50
2018-11-26T05:03:12.774Z,4.40
2018-11-26T05:05:41.293Z,4.40
2018-11-26T05:08:10.079Z,4.40
2018-11-26T05:10:38.615Z,4.70
2018-11-26T05:18:03.644Z,4.30
2018-11-26T05:20:32.172Z,4.40
2018-11-26T05:23:00.705Z,4.30
2018-11-26T05:25:29.240Z,4.20
2018-11-26T05:27:57.752Z,4.20
2018-11-26T05:30:26.340Z,4.40
2018-11-26T05:32:55.106Z,4.20
2018-11-26T05:35:23.652Z,4.20
2018-11-26T05:37:52.262Z,4.10
2018-11-26T05:40:20.778Z,4.10
2018-11-26T05:42:49.303Z,3.90
2018-11-26T05:45:17.892Z,4.10
2018-11-26T05:47:46.404Z,4.10
2018-11-26T05:50:15.516Z,4.00
2018-11-26T05:52:44.068Z,3.70
2018-11-26T05:55:13.718Z,3.80
2018-11-26T05:57:42.300Z,3.90
2018-11-26T06:00:14.354Z,3.90
2018-11-26T06:05:11.108Z,3.90
2018-11-26T06:07:39.682Z,4.00
2018-11-26T06:10:09.371Z,3.90
2018-11-26T06:12:37.908Z,3.50
2018-11-26T06:15:09.690Z,3.80
2018-11-26T06:17:38.273Z,3.60
2018-11-26T06:20:08.310Z,3.80
2018-11-26T06:22:36.775Z,3.50
2018-11-26T06:25:07.499Z,3.60
2018-11-26T06:27:35.979Z,3.10
2018-11-26T06:30:06.823Z,3.40
2018-11-26T06:32:35.314Z,3.00
2018-11-26T06:35:03.880Z,3.40
2018-11-26T06:40:00.582Z,3.40
2018-11-26T06:42:29.090Z,3.30
2018-11-26T06:44:57.604Z,3.30
2018-11-26T06:47:26.142Z,3.30
2018-11-26T06:49:54.629Z,3.00
2018-11-26T06:52:23.161Z,3.10
2018-11-26T06:54:51.634Z,3.20
2018-11-26T06:57:20.150Z,3.20
2018-11-26T06:59:48.612Z,3.20
2018-11-26T07:02:17.136Z,3.00
2018-11-26T07:04:45.626Z,2.80
2018-11-26T07:07:14.110Z,2.80
2018-11-26T07:09:42.604Z,3.10
2018-11-26T07:12:11.096Z,2.90
2018-11-26T07:14:39.545Z,2.90
2018-11-26T07:17:07.986Z,2.90
2018-11-26T07:19:36.458Z,2.80
2018-11-26T07:22:05.576Z,2.90
2018-11-26T07:24:33.764Z,2.90
2018-11-26T07:27:02.258Z,2.80
2018-11-26T07:29:30.743Z,2.80
2018-11-26T07:31:59.233Z,2.70
2018-11-26T07:34:27.709Z,2.80
2018-11-26T07:36:56.191Z,2.80
2018-11-26T07:39:24.679Z,2.80
2018-11-26T07:41:53.118Z,2.60
2018-11-26T07:44:21.591Z,2.60
2018-11-26T07:46:50.097Z,2.70
2018-11-26T07:49:18.567Z,2.60
2018-11-26T07:51:47.037Z,2.70
2018-11-26T07:54:15.530Z,2.90
2018-11-26T07:56:44.003Z,2.70
2018-11-26T08:01:40.729Z,2.50
2018-11-26T08:04:09.195Z,2.50
2018-11-26T08:06:37.637Z,2.40
2018-11-26T08:09:08.480Z,2.30
2018-11-26T08:11:36.960Z,2.40
2018-11-26T08:14:05.581Z,2.00
2018-11-26T08:16:34.039Z,2.30
2018-11-26T08:19:02.511Z,2.30
2018-11-26T08:21:30.981Z,2.30
2018-11-26T08:23:59.419Z,2.30
2018-11-26T08:26:27.887Z,2.30
2018-11-26T08:28:56.367Z,2.30
2018-11-26T08:31:24.857Z,2.30
2018-11-26T08:33:53.342Z,2.10
2018-11-26T08:36:27.140Z,2.10
2018-11-26T08:39:00.777Z,2.00
2018-11-26T08:41:42.425Z,2.00
2018-11-26T08:44:13.239Z,2.00
2018-11-26T08:47:46.752Z,1.90
2018-11-26T08:50:15.251Z,1.90
2018-11-26T08:52:43.756Z,1.60
2018-11-26T08:55:12.277Z,1.60
2018-11-26T08:57:40.767Z,1.70
2018-11-26T09:00:10.558Z,1.90
2018-11-26T09:02:44.541Z,1.70
2018-11-26T09:05:23.935Z,1.70
2018-11-26T09:07:46.926Z,1.70
2018-11-26T09:10:15.406Z,1.70
2018-11-26T09:12:43.919Z,1.70
2018-11-26T09:15:12.420Z,1.70
2018-11-26T09:17:40.882Z,1.70
2018-11-26T09:20:10.845Z,1.60
2018-11-26T09:22:39.352Z,1.60
2018-11-26T09:25:11.427Z,1.60
2018-11-26T09:27:39.942Z,1.60
2018-11-26T09:30:13.639Z,1.50
2018-11-26T09:32:42.710Z,1.50
2018-11-26T09:35:13.468Z,1.40
2018-11-26T09:37:41.971Z,1.40
2018-11-26T09:40:13.820Z,1.40
2018-11-26T09:42:42.341Z,1.40
2018-11-26T09:45:13.097Z,1.30
2018-11-26T09:47:41.600Z,1.40
2018-11-26T09:50:11.947Z,1.40
2018-11-26T09:52:40.430Z,1.30
2018-11-26T09:55:09.610Z,1.30
2018-11-26T09:57:38.143Z,1.30
2018-11-26T10:00:11.485Z,1.50
2018-11-26T10:02:40.592Z,1.30
2018-11-26T10:05:10.814Z,1.40
2018-11-26T10:07:39.278Z,1.40
2018-11-26T10:10:09.610Z,1.40
2018-11-26T10:12:38.504Z,1.40
2018-11-26T10:15:12.474Z,1.50
2018-11-26T10:17:40.992Z,1.80
2018-11-26T10:22:38.226Z,1.40
2018-11-26T10:25:08.732Z,1.30
2018-11-26T10:27:37.280Z,1.20
2018-11-26T10:30:09.189Z,1.30
2018-11-26T10:32:37.798Z,1.30
2018-11-26T10:35:07.479Z,1.20
2018-11-26T10:37:35.964Z,1.30
2018-11-26T10:40:06.359Z,1.30
2018-11-26T10:42:34.872Z,1.30
2018-11-26T10:45:03.488Z,1.30
2018-11-26T10:47:32.029Z,1.40
2018-11-26T10:50:00.525Z,1.30
2018-11-26T10:52:29.018Z,1.30
2018-11-26T10:54:57.842Z,1.30
2018-11-26T10:57:26.318Z,1.30
2018-11-26T10:59:54.847Z,1.30
2018-11-26T11:02:28.573Z,1.30
2018-11-26T11:04:57.031Z,1.10
2018-11-26T11:12:16.426Z,1.00
2018-11-26T11:14:44.885Z,1.20
2018-11-26T11:22:09.707Z,1.20
2018-11-26T11:24:38.165Z,1.20
2018-11-26T11:27:06.655Z,1.20
2018-11-26T11:29:35.135Z,1.10
2018-11-26T11:32:03.628Z,1.20
2018-11-26T11:34:32.113Z,1.20
2018-11-26T11:37:00.641Z,1.20
2018-11-26T11:39:29.104Z,1.20
2018-11-26T11:41:57.590Z,1.20
2018-11-26T11:44:26.049Z,1.20
2018-11-26T11:46:54.511Z,1.20
2018-11-26T11:49:23.002Z,1.20
2018-11-26T11:51:51.461Z,1.30
2018-11-26T11:54:19.926Z,1.30
2018-11-26T11:56:48.400Z,1.30
2018-11-26T11:59:16.886Z,1.30
2018-11-26T12:01:45.373Z,1.30
2018-11-26T12:04:13.875Z,1.30
2018-11-26T12:06:42.328Z,1.30
2018-11-26T12:09:10.852Z,1.20
2018-11-26T12:11:39.312Z,1.30
2018-11-26T12:14:07.812Z,1.40
2018-11-26T12:16:36.303Z,1.20
2018-11-26T12:19:04.802Z,1.20
2018-11-26T12:21:33.286Z,1.40
2018-11-26T12:24:01.774Z,1.10
2018-11-26T12:26:30.322Z,1.80
2018-11-26T12:28:58.790Z,1.40
2018-11-26T12:31:27.266Z,1.40
2018-11-26T12:33:55.764Z,1.40
2018-11-26T12:36:24.237Z,1.30
2018-11-26T12:38:52.701Z,1.30
2018-11-26T12:41:21.203Z,1.30
2018-11-26T12:43:49.653Z,1.30
2018-11-26T12:46:18.146Z,1.40
2018-11-26T12:48:46.651Z,1.20
2018-11-26T12:51:15.139Z,1.30
2018-11-26T12:53:43.612Z,1.40
2018-11-26T12:58:40.271Z,1.50
2018-11-26T13:01:08.752Z,1.30
2018-11-26T13:03:37.238Z,1.40
2018-11-26T13:06:06.592Z,1.50
2018-11-26T13:08:35.060Z,1.40
2018-11-26T13:11:03.557Z,1.60
2018-11-26T13:13:32.057Z,1.50
2018-11-26T13:16:00.579Z,1.40
2018-11-26T13:18:29.093Z,1.50
2018-11-26T13:20:57.607Z,1.40
2018-11-26T13:23:32.801Z,1.40
2018-11-26T13:26:01.309Z,1.40
2018-11-26T13:28:29.853Z,1.50
2018-11-26T13:30:58.374Z,1.50
2018-11-26T13:33:26.922Z,1.40
2018-11-26T13:35:55.481Z,1.40
2018-11-26T13:38:24.009Z,1.50
2018-11-26T13:40:52.508Z,1.30
2018-11-26T13:43:21.435Z,1.40
2018-11-26T13:45:50.028Z,1.40
2018-11-26T13:48:19.253Z,1.50
2018-11-26T13:50:51.303Z,1.50
2018-11-26T13:53:19.871Z,1.50
2018-11-26T13:55:48.445Z,1.50
2018-11-26T13:58:16.976Z,1.40
2018-11-26T14:00:45.516Z,1.40
2018-11-26T14:03:14.072Z,1.40
2018-11-26T14:05:49.312Z,1.50
2018-11-26T14:08:17.883Z,1.40
2018-11-26T14:10:46.441Z,1.40
2018-11-26T14:13:15.764Z,1.40
2018-11-26T14:15:44.303Z,1.70
2018-11-26T14:18:12.869Z,1.50
2018-11-26T14:20:41.410Z,1.50
2018-11-26T14:23:09.939Z,1.50
2018-11-26T14:25:38.513Z,0.80
2018-11-26T14:28:07.098Z,1.40
2018-11-26T14:30:35.682Z,1.30
2018-11-26T14:33:04.709Z,1.00
2018-11-26T14:35:33.220Z,1.20
2018-11-26T14:38:04.217Z,1.30
2018-11-26T14:40:35.465Z,1.10
2018-11-26T14:43:03.997Z,1.30
2018-11-26T14:45:32.513Z,1.30
2018-11-26T14:50:29.466Z,1.30
2018-11-26T14:52:58.029Z,1.70
2018-11-26T14:55:30.199Z,1.30
2018-11-26T14:57:58.709Z,1.20
2018-11-26T15:00:27.359Z,1.50
2018-11-26T15:05:24.164Z,1.30
2018-11-26T15:07:52.681Z,1.30
2018-11-26T15:10:23.513Z,1.40
2018-11-26T15:12:52.157Z,1.40
2018-11-26T15:15:22.294Z,1.30
2018-11-26T15:17:51.131Z,1.30
2018-11-26T15:20:21.597Z,1.20
2018-11-26T15:22:50.677Z,1.70
2018-11-26T15:25:24.427Z,1.50
2018-11-26T15:27:54.305Z,1.20
2018-11-26T15:30:23.236Z,1.80
2018-11-26T15:32:51.776Z,1.50
2018-11-26T15:35:21.535Z,1.20
2018-11-26T15:37:50.220Z,1.30
2018-11-26T15:40:19.947Z,1.20
2018-11-26T15:42:48.656Z,1.30
2018-11-26T15:45:21.185Z,1.50
2018-11-26T15:47:50.488Z,1.20
2018-11-26T15:50:19.035Z,0.70
2018-11-26T15:52:47.591Z,1.60
2018-11-26T15:55:17.621Z,1.70
2018-11-26T15:57:46.227Z,1.20
2018-11-26T16:00:18.673Z,1.40
2018-11-26T16:02:47.267Z,1.20
2018-11-26T16:05:17.323Z,1.30
2018-11-26T16:07:46.361Z,1.30
2018-11-26T16:10:15.470Z,1.40
2018-11-26T16:12:45.658Z,1.30
2018-11-26T16:15:19.597Z,1.10
2018-11-26T16:17:48.272Z,1.20
2018-11-26T16:20:28.400Z,1.10
2018-11-26T16:22:58.056Z,1.20
2018-11-26T16:25:26.718Z,1.20
2018-11-26T16:27:55.353Z,1.20
2018-11-26T16:30:24.727Z,1.40
2018-11-26T16:32:55.497Z,1.20
2018-11-26T16:35:26.300Z,1.30
2018-11-26T16:37:54.903Z,1.30
2018-11-26T16:40:23.679Z,1.30
2018-11-26T16:42:52.452Z,1.30
2018-11-26T16:45:22.218Z,1.00
2018-11-26T16:47:51.952Z,1.30
2018-11-26T16:50:23.388Z,1.30
2018-11-26T16:52:52.049Z,1.30
2018-11-26T16:55:20.734Z,1.20
2018-11-26T17:00:32.290Z,1.30
2018-11-26T17:03:01.899Z,1.20
2018-11-26T17:05:33.120Z,0.90
2018-11-26T17:08:01.906Z,1.20
2018-11-26T17:12:58.868Z,1.10
2018-11-26T17:17:56.027Z,1.20
2018-11-26T17:20:24.698Z,1.20
2018-11-26T17:22:53.959Z,1.30
2018-11-26T17:25:23.698Z,1.00
2018-11-26T17:27:52.820Z,1.30
2018-11-26T17:30:24.425Z,1.10
2018-11-26T17:35:24.006Z,0.70
2018-11-26T17:37:53.717Z,1.50
2018-11-26T17:40:24.234Z,1.30
2018-11-26T17:42:53.702Z,1.10
2018-11-26T17:45:23.692Z,1.00
2018-11-26T17:50:26.811Z,1.00
2018-11-26T17:52:55.586Z,1.10
2018-11-26T17:55:24.279Z,1.30
2018-11-26T17:57:53.009Z,1.30
2018-11-26T18:00:24.122Z,1.10
2018-11-26T18:05:23.166Z,1.30
2018-11-26T18:07:55.591Z,1.00
2018-11-26T18:10:24.257Z,1.30
2018-11-26T18:15:21.583Z,1.10
2018-11-26T18:20:21.975Z,1.00
2018-11-26T18:22:52.485Z,1.50
2018-11-26T18:25:21.685Z,1.00
2018-11-26T18:27:57.600Z,1.10
2018-11-26T18:30:33.085Z,1.00
2018-11-26T18:33:03.037Z,0.90
2018-11-26T18:38:01.371Z,1.00
2018-11-26T18:40:30.074Z,1.10
2018-11-26T18:43:00.072Z,1.10
2018-11-26T18:45:28.752Z,1.00
2018-11-26T18:50:26.738Z,1.00
2018-11-26T18:57:54.578Z,1.10
2018-11-26T19:00:25.421Z,1.00
2018-11-26T19:05:23.283Z,0.90
2018-11-26T19:07:52.311Z,1.00
2018-11-26T19:10:23.574Z,1.00
2018-11-26T19:13:00.711Z,1.10
2018-11-26T19:15:34.656Z,1.10
2018-11-26T19:18:10.921Z,0.90
2018-11-26T19:20:41.031Z,0.90
2018-11-26T19:23:10.751Z,1.10
2018-11-26T19:25:45.171Z,1.30
2018-11-26T19:28:20.244Z,1.10
2018-11-26T19:30:43.605Z,0.90
2018-11-26T19:35:41.159Z,1.00
2018-11-26T19:38:10.148Z,1.00
2018-11-26T19:40:41.603Z,1.10
2018-11-26T19:43:11.337Z,0.50
2018-11-26T19:45:40.528Z,1.20
2018-11-26T19:48:12.143Z,0.90
2018-11-26T19:50:40.898Z,1.00
2018-11-26T19:53:13.277Z,1.20
2018-11-26T19:55:45.517Z,1.40
2018-11-26T19:58:15.905Z,0.90
2018-11-26T20:00:45.697Z,1.20
2018-11-26T20:03:16.259Z,1.10
2018-11-26T20:08:20.412Z,0.90
2018-11-26T20:10:50.055Z,1.00
2018-11-26T20:15:49.333Z,1.20
2018-11-26T20:18:19.001Z,1.00
2018-11-26T20:23:19.305Z,1.00
2018-11-26T20:25:48.297Z,0.70
2018-11-26T20:30:47.313Z,1.40
2018-11-26T20:33:21.316Z,1.10
2018-11-26T20:35:52.369Z,1.00
2018-11-26T20:38:22.301Z,1.30
2018-11-26T20:40:51.782Z,0.60
2018-11-26T20:45:52.434Z,1.20
2018-11-26T20:48:21.719Z,1.10
2018-11-26T20:50:51.540Z,1.10
2018-11-26T20:53:25.392Z,1.20
2018-11-26T20:58:31.919Z,2.50
2018-11-26T21:01:01.524Z,1.00
2018-11-26T21:03:31.479Z,0.90
2018-11-26T21:06:03.027Z,1.10
2018-11-26T21:08:31.993Z,1.20
2018-11-26T21:11:00.852Z,0.90
2018-11-26T21:13:30.970Z,0.90
2018-11-26T21:15:59.858Z,0.90
2018-11-26T21:18:28.566Z,1.00
2018-11-26T21:20:58.602Z,1.00
2018-11-26T21:23:30.192Z,1.20
2018-11-26T21:26:02.130Z,1.00
2018-11-26T21:28:31.633Z,1.00
2018-11-26T21:31:01.731Z,1.00
2018-11-26T21:35:59.950Z,0.60
2018-11-26T21:38:29.104Z,1.00
2018-11-26T21:43:26.190Z,1.00
2018-11-26T21:48:25.195Z,1.20
2018-11-26T21:50:54.297Z,1.00
2018-11-26T21:53:23.434Z,1.00
2018-11-26T21:55:52.389Z,1.10
2018-11-26T21:58:21.660Z,1.00
2018-11-26T22:00:51.736Z,1.00
2018-11-26T22:03:20.798Z,1.20
2018-11-26T22:05:49.618Z,1.20
2018-11-26T22:08:18.491Z,1.40
2018-11-26T22:10:47.323Z,3.50
2018-11-26T22:15:46.230Z,1.10
2018-11-26T22:18:16.178Z,1.40
2018-11-26T22:23:13.564Z,1.10
2018-11-26T22:25:42.280Z,1.10
2018-11-26T22:35:36.690Z,1.00
2018-11-26T22:43:01.972Z,1.00
2018-11-26T22:45:31.870Z,1.40
2018-11-26T22:48:05.927Z,1.00
2018-11-26T22:53:03.109Z,1.10
2018-11-26T22:55:31.688Z,0.90
2018-11-26T22:58:00.518Z,1.10
2018-11-26T23:03:03.474Z,1.20
2018-11-26T23:08:00.239Z,0.80
2018-11-26T23:10:28.856Z,1.10
2018-11-26T23:15:25.706Z,1.40
2018-11-26T23:17:54.355Z,1.00
2018-11-26T23:22:51.653Z,1.00
2018-11-26T23:25:20.818Z,0.90
2018-11-26T23:30:19.908Z,0.90
2018-11-26T23:40:18.194Z,1.30
2018-11-26T23:42:46.850Z,1.20
2018-11-26T23:47:45.135Z,1.10
2018-11-26T23:52:43.415Z,0.90
2018-11-26T23:55:15.778Z,1.10
2018-11-26T23:57:44.326Z,0.90
